Ryuhomaru — JD2639 — position and weather

sailwx.info

Track history (hours):
 
Tides and Currents Weather Stations Pressure Air Temp Water Temp Dewpoint Dewpoint Depression Visibility Wind Speed Wind Dir Waves Ship Positions

Ryuhomaru

Last reported at 2017-Jan-18 05:29 UTC. Time now 2017-Jan-18 05:51 UTC.
Position N 34°33' E 135°25'.

Length 42 m; draft 3.5 m.

Type: Tug. MMSI: 431000586.

Date/timePositionNaut miles runAvg speedWind from/ knotsBaromVisibWave heightAir tempDewpointWater temp
2017-Jan-18 05:29N 34°33' E 135°25'4 4.0
2017-Jan-18 04:33N 34°33' E 135°20'5 5.0
2017-Jan-18 03:33N 34°33' E 135°27'0 0.1
2017-Jan-18 02:33N 34°33' E 135°27'0 0.0
2017-Jan-18 01:32N 34°33' E 135°27'0 0.0
2017-Jan-18 00:33N 34°33' E 135°27'0 0.0
2017-Jan-17 23:33N 34°33' E 135°27'0 0.0
2017-Jan-17 22:33N 34°33' E 135°27'2 2.1
2017-Jan-17 21:32N 34°31' E 135°25'2 2.2
2017-Jan-17 20:33N 34°33' E 135°27'0 0.0
2017-Jan-17 01:05N 34°33' E 135°27'2 3.5
2017-Jan-17 00:33N 34°33' E 135°24'2 1.7
2017-Jan-16 23:32N 34°33' E 135°26'0 0.2
2017-Jan-16 22:31N 34°33' E 135°27'0 0.0
2017-Jan-16 08:24N 34°33' E 135°27'4 4.3
2017-Jan-16 07:33N 34°31' E 135°23'1 0.5
2017-Jan-16 06:16N 34°31' E 135°23'1 1.0
2017-Jan-16 05:28N 34°32' E 135°24'1 1.2
2017-Jan-16 04:33N 34°31' E 135°24'0 0.0
2017-Jan-16 03:33N 34°31' E 135°24'2 2.1
2017-Jan-16 02:32N 34°33' E 135°24'2 2.2
2017-Jan-16 01:33N 34°33' E 135°26'0 0.4
2017-Jan-16 00:33N 34°33' E 135°27'6 6.1
2017-Jan-15 23:32N 34°30' E 135°20'3 3.1
2017-Jan-15 22:33N 34°27' E 135°19'1 1.2
2017-Jan-15 21:32N 34°28' E 135°20'8 7.6
2017-Jan-15 20:30N 34°33' E 135°27'1 0.1
2017-Jan-15 03:31N 34°33' E 135°25'0 0.2
2017-Jan-15 02:33N 34°33' E 135°25'0 0.1
2017-Jan-15 01:33N 34°33' E 135°25'0 0.0
2017-Jan-15 00:33N 34°33' E 135°25'0 0.1
2017-Jan-14 23:31N 34°33' E 135°25'0 0.1
2017-Jan-14 22:33N 34°33' E 135°25'0 0.1
2017-Jan-14 21:33N 34°33' E 135°25'0 0.0
2017-Jan-14 20:33N 34°33' E 135°25'0 0.1
2017-Jan-14 19:33N 34°33' E 135°25'0 0.1
2017-Jan-14 18:30N 34°33' E 135°25'0 0.1
2017-Jan-14 17:32N 34°33' E 135°25'0 0.0
2017-Jan-14 16:33N 34°33' E 135°25'0 0.0
2017-Jan-14 15:33N 34°33' E 135°25'0 0.1
2017-Jan-14 14:33N 34°33' E 135°25'0 0.1
2017-Jan-14 13:30N 34°33' E 135°25'0 0.1
2017-Jan-14 12:33N 34°33' E 135°25'0 0.0
2017-Jan-14 11:33N 34°33' E 135°25'0 0.1
2017-Jan-14 10:32N 34°33' E 135°25'0 0.1
2017-Jan-14 09:30N 34°33' E 135°25'0 0.1
2017-Jan-14 08:33N 34°33' E 135°25'0 0.1
2017-Jan-14 07:31N 34°33' E 135°25'0 0.0
2017-Jan-14 06:28N 34°33' E 135°25'0 0.1
2017-Jan-14 05:33N 34°33' E 135°25'0 0.0
2017-Jan-14 04:31N 34°33' E 135°25'0 0.1
2017-Jan-14 03:30N 34°33' E 135°25'1 0.3
2017-Jan-13 23:30N 34°33' E 135°27'0 0.0
2017-Jan-13 06:33N 34°33' E 135°27'0 0.0
2017-Jan-13 05:33N 34°33' E 135°27'0 0.0
2017-Jan-13 04:23N 34°33' E 135°27'0 0.0
2017-Jan-13 03:32N 34°33' E 135°27'7 7.4
2017-Jan-13 02:33N 34°32' E 135°18'7 7.2
2017-Jan-13 01:33N 34°33' E 135°27'0 0.0
2017-Jan-13 00:30N 34°33' E 135°27'0 0.0
2017-Jan-12 23:32N 34°33' E 135°27'0 0.0
2017-Jan-12 06:30N 34°33' E 135°27'0 0.5
2017-Jan-12 05:33N 34°33' E 135°26'1 0.5
2017-Jan-12 04:31N 34°33' E 135°25'4 3.6
2017-Jan-12 03:33N 34°34' E 135°21'5 4.6
2017-Jan-12 02:33N 34°33' E 135°27'0 0.0
2017-Jan-12 00:31N 34°33' E 135°27'0 0.0
2017-Jan-11 23:34N 34°33' E 135°27'2 2.0
2017-Jan-11 22:32N 34°33' E 135°24'2 2.0
2017-Jan-11 21:31N 34°31' E 135°25'2 2.3
2017-Jan-11 20:34N 34°33' E 135°27'0 0.0
2017-Jan-11 06:22N 34°33' E 135°27'0 0.0
2017-Jan-11 05:31N 34°33' E 135°27'0 0.0
2017-Jan-11 04:23N 34°33' E 135°27'0 0.0
2017-Jan-11 03:25N 34°33' E 135°27'0 0.0
2017-Jan-11 02:11N 34°33' E 135°27'2 1.0
2017-Jan-11 00:31N 34°33' E 135°25'5 4.7
2017-Jan-10 23:33N 34°34' E 135°19'6 6.1
2017-Jan-10 22:33N 34°33' E 135°27'0 0.0
2017-Jan-10 04:25N 34°33' E 135°27'0 0.0
2017-Jan-10 03:30N 34°33' E 135°27'0 0.0
2017-Jan-10 02:27N 34°33' E 135°27'2 1.8
2017-Jan-10 01:28N 34°33' E 135°24'1 1.3
2017-Jan-10 00:33N 34°33' E 135°26'1 0.5
2017-Jan-09 23:33N 34°33' E 135°27'2 0.1
2017-Jan-09 02:32N 34°33' E 135°24'2 2.3
2017-Jan-09 01:32N 34°31' E 135°23'0 0.5
2017-Jan-09 00:33N 34°31' E 135°23'3 3.2
2017-Jan-08 23:32N 34°33' E 135°27'  
Track history (hours):
 
Tides and Currents Weather Stations Pressure Air Temp Water Temp Dewpoint Dewpoint Depression Visibility Wind Speed Wind Dir Waves Ship Positions

Ryuhomaru

Last reported at 2017-Jan-18 05:29 UTC. Time now 2017-Jan-18 05:51 UTC.
Position N 34°33' E 135°25'.

Length 42 m; draft 3.5 m.

Type: Tug. MMSI: 431000586.

Date/timePositionNaut miles runAvg speedWind from/ knotsBaromVisibWave heightAir tempDewpointWater temp
2017-Jan-18 05:29N 34°33' E 135°25'4 4.0
2017-Jan-18 04:33N 34°33' E 135°20'5 5.0
2017-Jan-18 03:33N 34°33' E 135°27'0 0.1
2017-Jan-18 02:33N 34°33' E 135°27'0 0.0
2017-Jan-18 01:32N 34°33' E 135°27'0 0.0
2017-Jan-18 00:33N 34°33' E 135°27'0 0.0
2017-Jan-17 23:33N 34°33' E 135°27'0 0.0
2017-Jan-17 22:33N 34°33' E 135°27'2 2.1
2017-Jan-17 21:32N 34°31' E 135°25'2 2.2
2017-Jan-17 20:33N 34°33' E 135°27'0 0.0
2017-Jan-17 01:05N 34°33' E 135°27'2 3.5
2017-Jan-17 00:33N 34°33' E 135°24'2 1.7
2017-Jan-16 23:32N 34°33' E 135°26'0 0.2
2017-Jan-16 22:31N 34°33' E 135°27'0 0.0
2017-Jan-16 08:24N 34°33' E 135°27'4 4.3
2017-Jan-16 07:33N 34°31' E 135°23'1 0.5
2017-Jan-16 06:16N 34°31' E 135°23'1 1.0
2017-Jan-16 05:28N 34°32' E 135°24'1 1.2
2017-Jan-16 04:33N 34°31' E 135°24'0 0.0
2017-Jan-16 03:33N 34°31' E 135°24'2 2.1
2017-Jan-16 02:32N 34°33' E 135°24'2 2.2
2017-Jan-16 01:33N 34°33' E 135°26'0 0.4
2017-Jan-16 00:33N 34°33' E 135°27'6 6.1
2017-Jan-15 23:32N 34°30' E 135°20'3 3.1
2017-Jan-15 22:33N 34°27' E 135°19'1 1.2
2017-Jan-15 21:32N 34°28' E 135°20'8 7.6
2017-Jan-15 20:30N 34°33' E 135°27'1 0.1
2017-Jan-15 03:31N 34°33' E 135°25'0 0.2
2017-Jan-15 02:33N 34°33' E 135°25'0 0.1
2017-Jan-15 01:33N 34°33' E 135°25'0 0.0
2017-Jan-15 00:33N 34°33' E 135°25'0 0.1
2017-Jan-14 23:31N 34°33' E 135°25'0 0.1
2017-Jan-14 22:33N 34°33' E 135°25'0 0.1
2017-Jan-14 21:33N 34°33' E 135°25'0 0.0
2017-Jan-14 20:33N 34°33' E 135°25'0 0.1
2017-Jan-14 19:33N 34°33' E 135°25'0 0.1
2017-Jan-14 18:30N 34°33' E 135°25'0 0.1
2017-Jan-14 17:32N 34°33' E 135°25'0 0.0
2017-Jan-14 16:33N 34°33' E 135°25'0 0.0
2017-Jan-14 15:33N 34°33' E 135°25'0 0.1
2017-Jan-14 14:33N 34°33' E 135°25'0 0.1
2017-Jan-14 13:30N 34°33' E 135°25'0 0.1
2017-Jan-14 12:33N 34°33' E 135°25'0 0.0
2017-Jan-14 11:33N 34°33' E 135°25'0 0.1
2017-Jan-14 10:32N 34°33' E 135°25'0 0.1
2017-Jan-14 09:30N 34°33' E 135°25'0 0.1
2017-Jan-14 08:33N 34°33' E 135°25'0 0.1
2017-Jan-14 07:31N 34°33' E 135°25'0 0.0
2017-Jan-14 06:28N 34°33' E 135°25'0 0.1
2017-Jan-14 05:33N 34°33' E 135°25'0 0.0
2017-Jan-14 04:31N 34°33' E 135°25'0 0.1
2017-Jan-14 03:30N 34°33' E 135°25'1 0.3
2017-Jan-13 23:30N 34°33' E 135°27'0 0.0
2017-Jan-13 06:33N 34°33' E 135°27'0 0.0
2017-Jan-13 05:33N 34°33' E 135°27'0 0.0
2017-Jan-13 04:23N 34°33' E 135°27'0 0.0
2017-Jan-13 03:32N 34°33' E 135°27'7 7.4
2017-Jan-13 02:33N 34°32' E 135°18'7 7.2
2017-Jan-13 01:33N 34°33' E 135°27'0 0.0
2017-Jan-13 00:30N 34°33' E 135°27'0 0.0
2017-Jan-12 23:32N 34°33' E 135°27'0 0.0
2017-Jan-12 06:30N 34°33' E 135°27'0 0.5
2017-Jan-12 05:33N 34°33' E 135°26'1 0.5
2017-Jan-12 04:31N 34°33' E 135°25'4 3.6
2017-Jan-12 03:33N 34°34' E 135°21'5 4.6
2017-Jan-12 02:33N 34°33' E 135°27'0 0.0
2017-Jan-12 00:31N 34°33' E 135°27'0 0.0
2017-Jan-11 23:34N 34°33' E 135°27'2 2.0
2017-Jan-11 22:32N 34°33' E 135°24'2 2.0
2017-Jan-11 21:31N 34°31' E 135°25'2 2.3
2017-Jan-11 20:34N 34°33' E 135°27'0 0.0
2017-Jan-11 06:22N 34°33' E 135°27'0 0.0
2017-Jan-11 05:31N 34°33' E 135°27'0 0.0
2017-Jan-11 04:23N 34°33' E 135°27'0 0.0
2017-Jan-11 03:25N 34°33' E 135°27'0 0.0
2017-Jan-11 02:11N 34°33' E 135°27'2 1.0
2017-Jan-11 00:31N 34°33' E 135°25'5 4.7
2017-Jan-10 23:33N 34°34' E 135°19'6 6.1
2017-Jan-10 22:33N 34°33' E 135°27'0 0.0
2017-Jan-10 04:25N 34°33' E 135°27'0 0.0
2017-Jan-10 03:30N 34°33' E 135°27'0 0.0
2017-Jan-10 02:27N 34°33' E 135°27'2 1.8
2017-Jan-10 01:28N 34°33' E 135°24'1 1.3
2017-Jan-10 00:33N 34°33' E 135°26'1 0.5
2017-Jan-09 23:33N 34°33' E 135°27'2 0.1
2017-Jan-09 02:32N 34°33' E 135°24'2 2.3
2017-Jan-09 01:32N 34°31' E 135°23'0 0.5
2017-Jan-09 00:33N 34°31' E 135°23'3 3.2
2017-Jan-08 23:32N 34°33' E 135°27'  

Dump ship's entire track history